Rockton, PA (15856)

8:39 AM EST on February 06, 2016 (GMT -0500)
Eastern Avenue | | Change Station
CLOSE
Current Station
Personal Weather Station
Location: DuBois, PA
Elevation: 1457 ft
Nearby Weather Stations

Elev 1457 ft 41.12 °N, 78.74 °W | Updated 23 seconds ago

Overcast
Overcast
29.3 °F
Feels Like 29 °F
N
0.0
Wind Variable Wind from North
Gusts 0.0 mph

Today
High -- | Low -- °F
--% Chance of Precip.
Yesterday
High -- | Low -- °F
Precip. -- in
Pressure 30.37 in
Visibility 10.0 miles
Clouds Overcast 6000 ft
Windchill 29 °F
Dew Point 18 °F
Humidity 63%
Rainfall 0.00 in
Snow Depth Not available.
7:20 AM 5:37 PM
Waning Crescent, 5% visible
METAR KFIG 061254Z AUTO 28003KT 10SM OVC060 M05/M09 A3030 RMK AO2 SLP282 T10501089
Pressure 30.37 in
Visibility 10.0 miles
Clouds Overcast 6000 ft
Windchill 29 °F
Dew Point 18 °F
Humidity 63%
Rainfall 0.00 in
Snow Depth Not available.
7:20 AM 5:37 PM
Waning Crescent, 5% visible
METAR KFIG 061254Z AUTO 28003KT 10SM OVC060 M05/M09 A3030 RMK AO2 SLP282 T10501089

10-Day Weather Forecast

Almanac

Astronomy

Feb. 06, 2016 Rise Set
Actual Time
Civil Twilight
Nautical Twilight
Astronomical Twilight
Moon
Length of Visible Light
Length of Day
Tomorrow will be .
, % of the Moon is Illuminated

Today's Extremes

State Highs State Lows

Community

WunderPhotos

Upload Photos

1,890,971 photos uploaded!

WunderBlog® & News

Nearby

Air Quality

  Air Quality AQ Index Pollutant
Not available.

Snow Depth

Station Depth Elevation

Earthquake Activity

City Distance Mag. Time & Date
Minimum magnitude displayed is 2.5.

Coastal Water Temperatures

Place Temperature

Stations

Nearby Weather Stations

Station Location Temp. Windchill Dew Point Humidity Wind Precip. Elev Updated Type
                   

Watches & Warnings

There are currently no watches in effect.